sensor_id;sensor_type;location;lat;lon;timestamp;P1;durP1;ratioP1;P2;durP2;ratioP2
68910;SDS011;55953;51.650;-0.522;2023-07-02T00:00:23;24.50;;;8.60;;
68910;SDS011;55953;51.650;-0.522;2023-07-02T00:03:11;23.50;;;8.60;;
68910;SDS011;55953;51.650;-0.522;2023-07-02T00:05:39;21.60;;;8.00;;
68910;SDS011;55953;51.650;-0.522;2023-07-02T00:08:06;20.90;;;8.50;;
68910;SDS011;55953;51.650;-0.522;2023-07-02T00:10:41;22.50;;;8.40;;
68910;SDS011;55953;51.650;-0.522;2023-07-02T00:13:09;22.20;;;9.20;;
68910;SDS011;55953;51.650;-0.522;2023-07-02T00:15:37;20.60;;;8.30;;
68910;SDS011;55953;51.650;-0.522;2023-07-02T00:18:04;27.00;;;9.30;;
68910;SDS011;55953;51.650;-0.522;2023-07-02T00:20:33;20.70;;;8.10;;
68910;SDS011;55953;51.650;-0.522;2023-07-02T00:23:05;20.70;;;8.20;;
68910;SDS011;55953;51.650;-0.522;2023-07-02T00:25:34;22.50;;;8.50;;
68910;SDS011;55953;51.650;-0.522;2023-07-02T00:28:02;22.10;;;7.70;;
68910;SDS011;55953;51.650;-0.522;2023-07-02T00:30:31;19.60;;;7.80;;
68910;SDS011;55953;51.650;-0.522;2023-07-02T00:32:58;25.00;;;8.90;;
68910;SDS011;55953;51.650;-0.522;2023-07-02T00:35:26;21.90;;;8.60;;
68910;SDS011;55953;51.650;-0.522;2023-07-02T00:37:54;19.60;;;8.40;;
68910;SDS011;55953;51.650;-0.522;2023-07-02T00:40:22;19.40;;;7.90;;
68910;SDS011;55953;51.650;-0.522;2023-07-02T00:42:50;20.40;;;8.40;;
68910;SDS011;55953;51.650;-0.522;2023-07-02T00:45:18;21.90;;;8.40;;
68910;SDS011;55953;51.650;-0.522;2023-07-02T00:47:46;22.40;;;8.40;;
68910;SDS011;55953;51.650;-0.522;2023-07-02T00:50:14;22.00;;;8.10;;
68910;SDS011;55953;51.650;-0.522;2023-07-02T00:52:42;21.40;;;8.10;;
68910;SDS011;55953;51.650;-0.522;2023-07-02T00:55:10;23.40;;;8.70;;
68910;SDS011;55953;51.650;-0.522;2023-07-02T00:57:38;25.40;;;9.50;;
68910;SDS011;55953;51.650;-0.522;2023-07-02T01:00:08;21.70;;;8.90;;
68910;SDS011;55953;51.650;-0.522;2023-07-02T01:02:36;23.70;;;8.90;;
68910;SDS011;55953;51.650;-0.522;2023-07-02T01:05:06;21.90;;;9.40;;
68910;SDS011;55953;51.650;-0.522;2023-07-02T01:07:34;20.30;;;8.60;;
68910;SDS011;55953;51.650;-0.522;2023-07-02T01:10:02;20.30;;;8.20;;
68910;SDS011;55953;51.650;-0.522;2023-07-02T01:12:30;25.70;;;9.30;;
68910;SDS011;55953;51.650;-0.522;2023-07-02T01:15:00;20.80;;;8.00;;
68910;SDS011;55953;51.650;-0.522;2023-07-02T01:17:32;22.70;;;8.60;;
68910;SDS011;55953;51.650;-0.522;2023-07-02T01:20:11;22.00;;;8.10;;
68910;SDS011;55953;51.650;-0.522;2023-07-02T01:22:39;20.30;;;8.60;;
68910;SDS011;55953;51.650;-0.522;2023-07-02T01:25:08;20.40;;;8.50;;
68910;SDS011;55953;51.650;-0.522;2023-07-02T01:27:37;20.90;;;8.00;;
68910;SDS011;55953;51.650;-0.522;2023-07-02T01:30:06;20.80;;;8.90;;
68910;SDS011;55953;51.650;-0.522;2023-07-02T01:32:37;23.50;;;9.00;;
68910;SDS011;55953;51.650;-0.522;2023-07-02T01:35:06;25.20;;;9.50;;
68910;SDS011;55953;51.650;-0.522;2023-07-02T01:37:35;24.30;;;9.00;;
68910;SDS011;55953;51.650;-0.522;2023-07-02T01:40:06;23.60;;;8.80;;
68910;SDS011;55953;51.650;-0.522;2023-07-02T01:42:36;24.00;;;8.40;;
68910;SDS011;55953;51.650;-0.522;2023-07-02T01:45:04;25.70;;;8.10;;
68910;SDS011;55953;51.650;-0.522;2023-07-02T01:47:33;21.80;;;8.40;;
68910;SDS011;55953;51.650;-0.522;2023-07-02T01:50:04;24.00;;;8.80;;
68910;SDS011;55953;51.650;-0.522;2023-07-02T01:52:33;25.50;;;8.70;;
68910;SDS011;55953;51.650;-0.522;2023-07-02T01:55:01;24.80;;;8.60;;
68910;SDS011;55953;51.650;-0.522;2023-07-02T01:57:31;20.10;;;7.90;;
68910;SDS011;55953;51.650;-0.522;2023-07-02T01:59:59;23.10;;;8.90;;
68910;SDS011;55953;51.650;-0.522;2023-07-02T02:02:26;24.40;;;8.70;;
68910;SDS011;55953;51.650;-0.522;2023-07-02T02:04:55;22.30;;;8.80;;
68910;SDS011;55953;51.650;-0.522;2023-07-02T02:07:24;19.40;;;8.00;;
68910;SDS011;55953;51.650;-0.522;2023-07-02T02:09:53;20.70;;;8.40;;
68910;SDS011;55953;51.650;-0.522;2023-07-02T02:12:21;25.70;;;8.60;;
68910;SDS011;55953;51.650;-0.522;2023-07-02T02:14:49;24.10;;;8.90;;
68910;SDS011;55953;51.650;-0.522;2023-07-02T02:17:17;25.90;;;8.80;;
68910;SDS011;55953;51.650;-0.522;2023-07-02T02:19:45;23.10;;;8.30;;
68910;SDS011;55953;51.650;-0.522;2023-07-02T02:22:12;23.60;;;9.00;;
68910;SDS011;55953;51.650;-0.522;2023-07-02T02:24:40;22.20;;;8.60;;
68910;SDS011;55953;51.650;-0.522;2023-07-02T02:27:08;20.30;;;8.80;;
68910;SDS011;55953;51.650;-0.522;2023-07-02T02:29:36;25.50;;;8.20;;
68910;SDS011;55953;51.650;-0.522;2023-07-02T02:32:04;22.00;;;7.60;;
68910;SDS011;55953;51.650;-0.522;2023-07-02T02:34:33;21.70;;;7.90;;
68910;SDS011;55953;51.650;-0.522;2023-07-02T02:37:00;25.50;;;9.00;;
68910;SDS011;55953;51.650;-0.522;2023-07-02T02:39:29;30.00;;;9.90;;
68910;SDS011;55953;51.650;-0.522;2023-07-02T02:41:56;20.30;;;8.50;;
68910;SDS011;55953;51.650;-0.522;2023-07-02T02:44:24;26.80;;;8.70;;
68910;SDS011;55953;51.650;-0.522;2023-07-02T02:46:52;25.90;;;8.50;;
68910;SDS011;55953;51.650;-0.522;2023-07-02T02:49:20;23.80;;;8.30;;
68910;SDS011;55953;51.650;-0.522;2023-07-02T02:51:48;22.40;;;8.20;;
68910;SDS011;55953;51.650;-0.522;2023-07-02T02:54:16;22.90;;;8.20;;
68910;SDS011;55953;51.650;-0.522;2023-07-02T02:56:44;23.00;;;8.90;;
68910;SDS011;55953;51.650;-0.522;2023-07-02T02:59:12;24.70;;;8.70;;
68910;SDS011;55953;51.650;-0.522;2023-07-02T03:01:40;24.10;;;8.40;;
68910;SDS011;55953;51.650;-0.522;2023-07-02T03:04:08;17.20;;;7.50;;
68910;SDS011;55953;51.650;-0.522;2023-07-02T03:06:36;25.20;;;8.90;;
68910;SDS011;55953;51.650;-0.522;2023-07-02T03:09:04;23.30;;;8.10;;
68910;SDS011;55953;51.650;-0.522;2023-07-02T03:11:31;23.30;;;8.20;;
68910;SDS011;55953;51.650;-0.522;2023-07-02T03:14:00;25.10;;;9.10;;
68910;SDS011;55953;51.650;-0.522;2023-07-02T03:16:28;23.50;;;8.20;;
68910;SDS011;55953;51.650;-0.522;2023-07-02T03:18:56;19.50;;;7.40;;
68910;SDS011;55953;51.650;-0.522;2023-07-02T03:21:23;28.20;;;9.20;;
68910;SDS011;55953;51.650;-0.522;2023-07-02T03:23:51;26.40;;;8.60;;
68910;SDS011;55953;51.650;-0.522;2023-07-02T03:26:19;22.20;;;9.30;;
68910;SDS011;55953;51.650;-0.522;2023-07-02T03:28:48;24.90;;;8.10;;
68910;SDS011;55953;51.650;-0.522;2023-07-02T03:31:16;20.50;;;8.10;;
68910;SDS011;55953;51.650;-0.522;2023-07-02T03:33:44;24.00;;;8.60;;
68910;SDS011;55953;51.650;-0.522;2023-07-02T03:36:11;22.20;;;8.10;;
68910;SDS011;55953;51.650;-0.522;2023-07-02T03:38:39;24.10;;;7.80;;
68910;SDS011;55953;51.650;-0.522;2023-07-02T03:41:07;23.20;;;7.90;;
68910;SDS011;55953;51.650;-0.522;2023-07-02T03:43:35;22.80;;;8.00;;
68910;SDS011;55953;51.650;-0.522;2023-07-02T03:46:03;23.60;;;8.40;;
68910;SDS011;55953;51.650;-0.522;2023-07-02T03:48:30;24.20;;;8.50;;
68910;SDS011;55953;51.650;-0.522;2023-07-02T03:50:58;22.70;;;7.90;;
68910;SDS011;55953;51.650;-0.522;2023-07-02T03:53:26;23.80;;;8.20;;
68910;SDS011;55953;51.650;-0.522;2023-07-02T03:55:54;20.90;;;7.60;;
68910;SDS011;55953;51.650;-0.522;2023-07-02T03:58:22;19.80;;;7.10;;
68910;SDS011;55953;51.650;-0.522;2023-07-02T04:00:50;22.60;;;8.80;;
68910;SDS011;55953;51.650;-0.522;2023-07-02T04:03:29;23.30;;;8.80;;
68910;SDS011;55953;51.650;-0.522;2023-07-02T04:06:05;23.40;;;9.30;;
68910;SDS011;55953;51.650;-0.522;2023-07-02T04:08:33;25.30;;;9.60;;
68910;SDS011;55953;51.650;-0.522;2023-07-02T04:11:01;19.70;;;8.60;;
68910;SDS011;55953;51.650;-0.522;2023-07-02T04:13:29;24.00;;;8.80;;
68910;SDS011;55953;51.650;-0.522;2023-07-02T04:15:57;23.50;;;8.50;;
68910;SDS011;55953;51.650;-0.522;2023-07-02T04:18:25;22.60;;;7.70;;
68910;SDS011;55953;51.650;-0.522;2023-07-02T04:20:53;19.60;;;7.30;;
68910;SDS011;55953;51.650;-0.522;2023-07-02T04:23:21;25.00;;;8.40;;
68910;SDS011;55953;51.650;-0.522;2023-07-02T04:25:50;22.20;;;7.50;;
68910;SDS011;55953;51.650;-0.522;2023-07-02T04:28:38;22.70;;;7.90;;
68910;SDS011;55953;51.650;-0.522;2023-07-02T04:31:06;19.20;;;7.20;;
68910;SDS011;55953;51.650;-0.522;2023-07-02T04:33:34;21.40;;;7.40;;
68910;SDS011;55953;51.650;-0.522;2023-07-02T04:36:04;23.80;;;8.30;;
68910;SDS011;55953;51.650;-0.522;2023-07-02T04:38:32;26.90;;;8.10;;
68910;SDS011;55953;51.650;-0.522;2023-07-02T04:41:00;20.50;;;7.30;;
68910;SDS011;55953;51.650;-0.522;2023-07-02T04:43:33;23.40;;;7.20;;
68910;SDS011;55953;51.650;-0.522;2023-07-02T04:46:01;20.20;;;6.90;;
68910;SDS011;55953;51.650;-0.522;2023-07-02T04:48:30;18.30;;;7.70;;
68910;SDS011;55953;51.650;-0.522;2023-07-02T04:50:58;22.10;;;7.70;;
68910;SDS011;55953;51.650;-0.522;2023-07-02T04:53:25;23.20;;;7.30;;
68910;SDS011;55953;51.650;-0.522;2023-07-02T04:55:53;21.10;;;7.40;;
68910;SDS011;55953;51.650;-0.522;2023-07-02T04:58:21;21.80;;;7.90;;
68910;SDS011;55953;51.650;-0.522;2023-07-02T05:00:49;22.20;;;7.20;;
68910;SDS011;55953;51.650;-0.522;2023-07-02T05:03:18;21.00;;;6.90;;
68910;SDS011;55953;51.650;-0.522;2023-07-02T05:05:45;18.50;;;6.20;;
68910;SDS011;55953;51.650;-0.522;2023-07-02T05:08:14;17.40;;;6.60;;
68910;SDS011;55953;51.650;-0.522;2023-07-02T05:10:42;21.70;;;6.90;;
68910;SDS011;55953;51.650;-0.522;2023-07-02T05:13:09;19.00;;;6.20;;
68910;SDS011;55953;51.650;-0.522;2023-07-02T05:15:37;20.50;;;6.30;;
68910;SDS011;55953;51.650;-0.522;2023-07-02T05:18:05;20.80;;;6.50;;
68910;SDS011;55953;51.650;-0.522;2023-07-02T05:20:34;19.10;;;6.30;;
68910;SDS011;55953;51.650;-0.522;2023-07-02T05:23:02;18.10;;;6.30;;
68910;SDS011;55953;51.650;-0.522;2023-07-02T05:25:29;17.20;;;6.10;;
68910;SDS011;55953;51.650;-0.522;2023-07-02T05:27:57;20.50;;;6.20;;
68910;SDS011;55953;51.650;-0.522;2023-07-02T05:30:25;18.30;;;6.20;;
68910;SDS011;55953;51.650;-0.522;2023-07-02T05:32:54;18.30;;;6.00;;
68910;SDS011;55953;51.650;-0.522;2023-07-02T05:35:21;15.70;;;5.80;;
68910;SDS011;55953;51.650;-0.522;2023-07-02T05:37:49;15.50;;;5.50;;
68910;SDS011;55953;51.650;-0.522;2023-07-02T05:40:17;16.30;;;5.50;;
68910;SDS011;55953;51.650;-0.522;2023-07-02T05:42:45;17.10;;;5.80;;
68910;SDS011;55953;51.650;-0.522;2023-07-02T05:45:13;21.80;;;5.90;;
68910;SDS011;55953;51.650;-0.522;2023-07-02T05:47:41;14.50;;;5.80;;
68910;SDS011;55953;51.650;-0.522;2023-07-02T05:50:09;16.00;;;5.50;;
68910;SDS011;55953;51.650;-0.522;2023-07-02T05:52:37;15.50;;;5.60;;
68910;SDS011;55953;51.650;-0.522;2023-07-02T05:55:07;15.00;;;5.00;;
68910;SDS011;55953;51.650;-0.522;2023-07-02T05:57:38;18.10;;;5.80;;
68910;SDS011;55953;51.650;-0.522;2023-07-02T06:00:06;16.80;;;5.70;;
68910;SDS011;55953;51.650;-0.522;2023-07-02T06:02:41;16.20;;;5.70;;
68910;SDS011;55953;51.650;-0.522;2023-07-02T06:05:08;15.30;;;5.60;;
68910;SDS011;55953;51.650;-0.522;2023-07-02T06:07:37;15.80;;;4.80;;
68910;SDS011;55953;51.650;-0.522;2023-07-02T06:10:06;13.80;;;4.60;;
68910;SDS011;55953;51.650;-0.522;2023-07-02T06:12:35;18.10;;;5.90;;
68910;SDS011;55953;51.650;-0.522;2023-07-02T06:15:03;15.90;;;5.60;;
68910;SDS011;55953;51.650;-0.522;2023-07-02T06:17:31;14.30;;;5.50;;
68910;SDS011;55953;51.650;-0.522;2023-07-02T06:22:34;17.60;;;5.00;;
68910;SDS011;55953;51.650;-0.522;2023-07-02T06:25:02;13.90;;;4.80;;
68910;SDS011;55953;51.650;-0.522;2023-07-02T06:27:32;13.50;;;4.80;;
68910;SDS011;55953;51.650;-0.522;2023-07-02T06:30:00;16.20;;;4.70;;
68910;SDS011;55953;51.650;-0.522;2023-07-02T06:32:28;12.30;;;5.20;;
68910;SDS011;55953;51.650;-0.522;2023-07-02T06:34:56;14.60;;;5.10;;
68910;SDS011;55953;51.650;-0.522;2023-07-02T06:37:24;15.10;;;5.20;;
68910;SDS011;55953;51.650;-0.522;2023-07-02T06:39:52;12.30;;;4.90;;
68910;SDS011;55953;51.650;-0.522;2023-07-02T06:42:20;15.60;;;4.90;;
68910;SDS011;55953;51.650;-0.522;2023-07-02T06:44:48;16.10;;;4.90;;
68910;SDS011;55953;51.650;-0.522;2023-07-02T06:47:16;11.70;;;4.70;;
68910;SDS011;55953;51.650;-0.522;2023-07-02T06:49:48;12.90;;;4.80;;
68910;SDS011;55953;51.650;-0.522;2023-07-02T06:52:16;12.80;;;4.60;;
68910;SDS011;55953;51.650;-0.522;2023-07-02T06:54:44;10.50;;;4.50;;
68910;SDS011;55953;51.650;-0.522;2023-07-02T06:57:14;11.40;;;4.80;;
68910;SDS011;55953;51.650;-0.522;2023-07-02T06:59:44;14.70;;;5.50;;
68910;SDS011;55953;51.650;-0.522;2023-07-02T07:02:16;14.50;;;5.30;;
68910;SDS011;55953;51.650;-0.522;2023-07-02T07:04:44;13.00;;;4.90;;
68910;SDS011;55953;51.650;-0.522;2023-07-02T07:07:11;14.20;;;4.80;;
68910;SDS011;55953;51.650;-0.522;2023-07-02T07:09:39;12.10;;;4.40;;
68910;SDS011;55953;51.650;-0.522;2023-07-02T07:12:07;13.50;;;4.90;;
68910;SDS011;55953;51.650;-0.522;2023-07-02T07:14:35;12.80;;;5.10;;
68910;SDS011;55953;51.650;-0.522;2023-07-02T07:17:03;11.80;;;4.40;;
68910;SDS011;55953;51.650;-0.522;2023-07-02T07:19:31;13.50;;;4.50;;
68910;SDS011;55953;51.650;-0.522;2023-07-02T07:21:59;10.90;;;4.30;;
68910;SDS011;55953;51.650;-0.522;2023-07-02T07:24:27;13.40;;;3.90;;
68910;SDS011;55953;51.650;-0.522;2023-07-02T07:26:54;12.00;;;4.20;;
68910;SDS011;55953;51.650;-0.522;2023-07-02T07:29:22;12.30;;;4.50;;
68910;SDS011;55953;51.650;-0.522;2023-07-02T07:31:50;9.40;;;4.10;;
68910;SDS011;55953;51.650;-0.522;2023-07-02T07:34:18;12.10;;;4.30;;
68910;SDS011;55953;51.650;-0.522;2023-07-02T07:36:46;10.50;;;4.00;;
68910;SDS011;55953;51.650;-0.522;2023-07-02T07:39:13;14.20;;;4.50;;
68910;SDS011;55953;51.650;-0.522;2023-07-02T07:41:41;8.70;;;3.60;;
68910;SDS011;55953;51.650;-0.522;2023-07-02T07:44:14;12.10;;;4.20;;
68910;SDS011;55953;51.650;-0.522;2023-07-02T07:46:42;11.90;;;3.80;;
68910;SDS011;55953;51.650;-0.522;2023-07-02T07:49:09;9.90;;;3.90;;
68910;SDS011;55953;51.650;-0.522;2023-07-02T07:51:37;10.00;;;3.80;;
68910;SDS011;55953;51.650;-0.522;2023-07-02T07:54:05;12.10;;;4.00;;
68910;SDS011;55953;51.650;-0.522;2023-07-02T07:56:33;11.00;;;4.00;;
68910;SDS011;55953;51.650;-0.522;2023-07-02T07:59:01;8.80;;;3.60;;
68910;SDS011;55953;51.650;-0.522;2023-07-02T08:01:28;10.00;;;3.50;;
68910;SDS011;55953;51.650;-0.522;2023-07-02T08:03:56;9.70;;;3.40;;
68910;SDS011;55953;51.650;-0.522;2023-07-02T08:06:24;12.20;;;4.20;;
68910;SDS011;55953;51.650;-0.522;2023-07-02T08:08:52;11.00;;;3.70;;
68910;SDS011;55953;51.650;-0.522;2023-07-02T08:11:20;9.10;;;3.20;;
68910;SDS011;55953;51.650;-0.522;2023-07-02T08:13:48;9.70;;;3.60;;
68910;SDS011;55953;51.650;-0.522;2023-07-02T08:16:15;11.10;;;3.90;;
68910;SDS011;55953;51.650;-0.522;2023-07-02T08:18:44;11.60;;;3.60;;
68910;SDS011;55953;51.650;-0.522;2023-07-02T08:21:11;11.90;;;4.00;;
68910;SDS011;55953;51.650;-0.522;2023-07-02T08:23:42;11.40;;;4.40;;
68910;SDS011;55953;51.650;-0.522;2023-07-02T08:26:11;10.50;;;4.10;;
68910;SDS011;55953;51.650;-0.522;2023-07-02T08:28:39;11.10;;;3.50;;
68910;SDS011;55953;51.650;-0.522;2023-07-02T08:31:07;10.40;;;4.10;;
68910;SDS011;55953;51.650;-0.522;2023-07-02T08:33:35;8.60;;;3.70;;
68910;SDS011;55953;51.650;-0.522;2023-07-02T08:36:03;8.60;;;3.40;;
68910;SDS011;55953;51.650;-0.522;2023-07-02T08:38:31;9.60;;;3.60;;
68910;SDS011;55953;51.650;-0.522;2023-07-02T08:40:59;10.30;;;3.80;;
68910;SDS011;55953;51.650;-0.522;2023-07-02T08:43:28;10.10;;;3.40;;
68910;SDS011;55953;51.650;-0.522;2023-07-02T08:45:56;10.90;;;3.60;;
68910;SDS011;55953;51.650;-0.522;2023-07-02T08:48:26;9.00;;;3.50;;
68910;SDS011;55953;51.650;-0.522;2023-07-02T08:50:56;7.70;;;2.90;;
68910;SDS011;55953;51.650;-0.522;2023-07-02T08:53:24;10.60;;;3.80;;
68910;SDS011;55953;51.650;-0.522;2023-07-02T08:55:57;10.10;;;3.60;;
68910;SDS011;55953;51.650;-0.522;2023-07-02T08:58:25;8.50;;;3.20;;
68910;SDS011;55953;51.650;-0.522;2023-07-02T09:01:12;11.00;;;3.90;;
68910;SDS011;55953;51.650;-0.522;2023-07-02T09:03:41;9.20;;;3.40;;
68910;SDS011;55953;51.650;-0.522;2023-07-02T09:06:10;9.70;;;3.40;;
68910;SDS011;55953;51.650;-0.522;2023-07-02T09:08:39;10.10;;;3.60;;
68910;SDS011;55953;51.650;-0.522;2023-07-02T09:11:08;9.90;;;3.60;;
68910;SDS011;55953;51.650;-0.522;2023-07-02T09:16:28;9.00;;;4.00;;
68910;SDS011;55953;51.650;-0.522;2023-07-02T09:19:04;11.30;;;3.30;;
68910;SDS011;55953;51.650;-0.522;2023-07-02T09:21:48;8.20;;;3.10;;
68910;SDS011;55953;51.650;-0.522;2023-07-02T09:24:18;9.40;;;3.60;;
68910;SDS011;55953;51.650;-0.522;2023-07-02T09:26:52;9.00;;;3.60;;
68910;SDS011;55953;51.650;-0.522;2023-07-02T09:29:29;9.10;;;3.60;;
68910;SDS011;55953;51.650;-0.522;2023-07-02T09:32:03;10.40;;;3.70;;
68910;SDS011;55953;51.650;-0.522;2023-07-02T09:34:39;10.80;;;4.10;;
68910;SDS011;55953;51.650;-0.522;2023-07-02T09:37:09;9.40;;;3.80;;
68910;SDS011;55953;51.650;-0.522;2023-07-02T09:39:38;10.40;;;3.90;;
68910;SDS011;55953;51.650;-0.522;2023-07-02T09:42:08;10.50;;;3.80;;
68910;SDS011;55953;51.650;-0.522;2023-07-02T09:44:38;9.50;;;3.80;;
68910;SDS011;55953;51.650;-0.522;2023-07-02T09:47:09;8.90;;;3.70;;
68910;SDS011;55953;51.650;-0.522;2023-07-02T09:49:41;10.70;;;3.80;;
68910;SDS011;55953;51.650;-0.522;2023-07-02T09:52:13;11.00;;;3.40;;
68910;SDS011;55953;51.650;-0.522;2023-07-02T09:54:42;12.10;;;3.60;;
68910;SDS011;55953;51.650;-0.522;2023-07-02T09:57:10;9.70;;;3.90;;
68910;SDS011;55953;51.650;-0.522;2023-07-02T09:59:38;8.10;;;3.50;;
68910;SDS011;55953;51.650;-0.522;2023-07-02T10:02:09;10.00;;;3.90;;
68910;SDS011;55953;51.650;-0.522;2023-07-02T10:07:26;10.70;;;3.60;;
68910;SDS011;55953;51.650;-0.522;2023-07-02T10:09:55;8.70;;;3.60;;
68910;SDS011;55953;51.650;-0.522;2023-07-02T10:12:25;11.10;;;3.90;;
68910;SDS011;55953;51.650;-0.522;2023-07-02T10:14:58;11.00;;;3.70;;
68910;SDS011;55953;51.650;-0.522;2023-07-02T10:20:06;12.90;;;4.20;;
68910;SDS011;55953;51.650;-0.522;2023-07-02T10:22:46;9.20;;;3.80;;
68910;SDS011;55953;51.650;-0.522;2023-07-02T10:25:25;11.60;;;3.90;;
68910;SDS011;55953;51.650;-0.522;2023-07-02T10:27:54;11.90;;;3.70;;
68910;SDS011;55953;51.650;-0.522;2023-07-02T10:30:34;9.30;;;3.50;;
68910;SDS011;55953;51.650;-0.522;2023-07-02T10:33:13;8.30;;;3.80;;
68910;SDS011;55953;51.650;-0.522;2023-07-02T10:35:47;10.40;;;4.00;;
68910;SDS011;55953;51.650;-0.522;2023-07-02T10:38:20;12.20;;;3.90;;
68910;SDS011;55953;51.650;-0.522;2023-07-02T10:40:58;11.40;;;4.50;;
68910;SDS011;55953;51.650;-0.522;2023-07-02T10:43:30;10.80;;;3.80;;
68910;SDS011;55953;51.650;-0.522;2023-07-02T10:45:58;12.70;;;3.90;;
68910;SDS011;55953;51.650;-0.522;2023-07-02T10:48:30;11.50;;;3.50;;
68910;SDS011;55953;51.650;-0.522;2023-07-02T10:50:58;8.20;;;3.30;;
68910;SDS011;55953;51.650;-0.522;2023-07-02T10:53:26;11.30;;;3.80;;
68910;SDS011;55953;51.650;-0.522;2023-07-02T10:55:56;8.90;;;3.40;;
68910;SDS011;55953;51.650;-0.522;2023-07-02T10:58:26;8.90;;;3.70;;
68910;SDS011;55953;51.650;-0.522;2023-07-02T11:00:54;11.30;;;3.70;;
68910;SDS011;55953;51.650;-0.522;2023-07-02T11:03:23;12.30;;;4.10;;
68910;SDS011;55953;51.650;-0.522;2023-07-02T11:05:53;10.20;;;3.50;;
68910;SDS011;55953;51.650;-0.522;2023-07-02T11:08:22;10.20;;;3.40;;
68910;SDS011;55953;51.650;-0.522;2023-07-02T11:11:04;13.20;;;3.90;;
68910;SDS011;55953;51.650;-0.522;2023-07-02T11:13:33;9.90;;;3.90;;
68910;SDS011;55953;51.650;-0.522;2023-07-02T11:16:01;9.30;;;3.00;;
68910;SDS011;55953;51.650;-0.522;2023-07-02T11:18:30;9.00;;;3.30;;
68910;SDS011;55953;51.650;-0.522;2023-07-02T11:21:09;9.70;;;3.30;;
68910;SDS011;55953;51.650;-0.522;2023-07-02T11:23:37;9.50;;;3.20;;
68910;SDS011;55953;51.650;-0.522;2023-07-02T11:26:06;8.00;;;3.20;;
68910;SDS011;55953;51.650;-0.522;2023-07-02T11:28:34;8.90;;;3.00;;
68910;SDS011;55953;51.650;-0.522;2023-07-02T11:31:05;7.20;;;2.90;;
68910;SDS011;55953;51.650;-0.522;2023-07-02T11:33:39;8.00;;;3.00;;
68910;SDS011;55953;51.650;-0.522;2023-07-02T11:36:19;8.40;;;2.50;;
68910;SDS011;55953;51.650;-0.522;2023-07-02T11:38:54;8.40;;;3.00;;
68910;SDS011;55953;51.650;-0.522;2023-07-02T11:41:22;7.30;;;2.90;;
68910;SDS011;55953;51.650;-0.522;2023-07-02T11:43:50;7.80;;;2.80;;
68910;SDS011;55953;51.650;-0.522;2023-07-02T11:46:18;7.10;;;2.80;;
68910;SDS011;55953;51.650;-0.522;2023-07-02T11:48:46;8.20;;;2.70;;
68910;SDS011;55953;51.650;-0.522;2023-07-02T11:51:13;8.70;;;3.10;;
68910;SDS011;55953;51.650;-0.522;2023-07-02T11:53:41;7.90;;;2.30;;
68910;SDS011;55953;51.650;-0.522;2023-07-02T11:56:09;10.30;;;2.70;;
68910;SDS011;55953;51.650;-0.522;2023-07-02T11:58:37;8.90;;;2.50;;
68910;SDS011;55953;51.650;-0.522;2023-07-02T12:01:05;9.50;;;2.80;;
68910;SDS011;55953;51.650;-0.522;2023-07-02T12:03:33;6.50;;;2.40;;
68910;SDS011;55953;51.650;-0.522;2023-07-02T12:06:01;13.00;;;2.80;;
68910;SDS011;55953;51.650;-0.522;2023-07-02T12:08:29;6.70;;;2.70;;
68910;SDS011;55953;51.650;-0.522;2023-07-02T12:10:56;7.00;;;2.40;;
68910;SDS011;55953;51.650;-0.522;2023-07-02T12:13:24;6.60;;;2.70;;
68910;SDS011;55953;51.650;-0.522;2023-07-02T12:15:52;7.50;;;2.60;;
68910;SDS011;55953;51.650;-0.522;2023-07-02T12:18:20;6.50;;;2.10;;
68910;SDS011;55953;51.650;-0.522;2023-07-02T12:20:47;5.60;;;2.60;;
68910;SDS011;55953;51.650;-0.522;2023-07-02T12:23:15;6.80;;;2.60;;
68910;SDS011;55953;51.650;-0.522;2023-07-02T12:25:43;6.80;;;2.40;;
68910;SDS011;55953;51.650;-0.522;2023-07-02T12:28:11;7.90;;;2.70;;
68910;SDS011;55953;51.650;-0.522;2023-07-02T12:30:40;7.30;;;2.70;;
68910;SDS011;55953;51.650;-0.522;2023-07-02T12:33:08;7.80;;;2.60;;
68910;SDS011;55953;51.650;-0.522;2023-07-02T12:35:36;6.80;;;2.50;;
68910;SDS011;55953;51.650;-0.522;2023-07-02T12:38:03;8.20;;;2.70;;
68910;SDS011;55953;51.650;-0.522;2023-07-02T12:40:31;9.20;;;2.50;;
68910;SDS011;55953;51.650;-0.522;2023-07-02T12:42:59;4.10;;;1.80;;
68910;SDS011;55953;51.650;-0.522;2023-07-02T12:45:27;6.90;;;2.30;;
68910;SDS011;55953;51.650;-0.522;2023-07-02T12:47:55;7.40;;;2.50;;
68910;SDS011;55953;51.650;-0.522;2023-07-02T12:50:22;7.30;;;2.40;;
68910;SDS011;55953;51.650;-0.522;2023-07-02T12:52:50;9.90;;;2.60;;
68910;SDS011;55953;51.650;-0.522;2023-07-02T12:55:18;8.00;;;2.20;;
68910;SDS011;55953;51.650;-0.522;2023-07-02T12:57:46;6.80;;;2.00;;
68910;SDS011;55953;51.650;-0.522;2023-07-02T13:00:14;8.60;;;2.60;;
68910;SDS011;55953;51.650;-0.522;2023-07-02T13:02:42;7.70;;;2.40;;
68910;SDS011;55953;51.650;-0.522;2023-07-02T13:05:28;8.80;;;2.10;;
68910;SDS011;55953;51.650;-0.522;2023-07-02T13:07:56;7.10;;;2.10;;
68910;SDS011;55953;51.650;-0.522;2023-07-02T13:10:24;7.60;;;2.30;;
68910;SDS011;55953;51.650;-0.522;2023-07-02T13:12:52;5.20;;;2.00;;
68910;SDS011;55953;51.650;-0.522;2023-07-02T13:15:20;7.10;;;2.10;;
68910;SDS011;55953;51.650;-0.522;2023-07-02T13:17:48;9.00;;;2.20;;
68910;SDS011;55953;51.650;-0.522;2023-07-02T13:20:16;9.80;;;2.20;;
68910;SDS011;55953;51.650;-0.522;2023-07-02T13:22:44;6.80;;;2.30;;
68910;SDS011;55953;51.650;-0.522;2023-07-02T13:25:12;7.40;;;2.50;;
68910;SDS011;55953;51.650;-0.522;2023-07-02T13:27:40;9.40;;;2.50;;
68910;SDS011;55953;51.650;-0.522;2023-07-02T13:30:08;8.00;;;2.50;;
68910;SDS011;55953;51.650;-0.522;2023-07-02T13:32:36;8.60;;;2.20;;
68910;SDS011;55953;51.650;-0.522;2023-07-02T13:35:04;6.90;;;2.20;;
68910;SDS011;55953;51.650;-0.522;2023-07-02T13:37:33;9.10;;;2.80;;
68910;SDS011;55953;51.650;-0.522;2023-07-02T13:40:01;8.90;;;2.50;;
68910;SDS011;55953;51.650;-0.522;2023-07-02T13:42:32;7.30;;;2.20;;
68910;SDS011;55953;51.650;-0.522;2023-07-02T13:45:00;7.60;;;2.60;;
68910;SDS011;55953;51.650;-0.522;2023-07-02T13:47:27;8.30;;;2.40;;
68910;SDS011;55953;51.650;-0.522;2023-07-02T13:49:56;8.10;;;2.60;;
68910;SDS011;55953;51.650;-0.522;2023-07-02T13:52:24;8.40;;;2.40;;
68910;SDS011;55953;51.650;-0.522;2023-07-02T13:54:51;11.70;;;2.50;;
68910;SDS011;55953;51.650;-0.522;2023-07-02T13:57:19;10.10;;;2.90;;
68910;SDS011;55953;51.650;-0.522;2023-07-02T13:59:47;9.00;;;2.60;;
68910;SDS011;55953;51.650;-0.522;2023-07-02T14:02:15;6.00;;;2.70;;
68910;SDS011;55953;51.650;-0.522;2023-07-02T14:04:43;7.90;;;2.50;;
68910;SDS011;55953;51.650;-0.522;2023-07-02T14:07:11;8.50;;;2.80;;
68910;SDS011;55953;51.650;-0.522;2023-07-02T14:09:39;9.40;;;2.90;;
68910;SDS011;55953;51.650;-0.522;2023-07-02T14:12:07;10.00;;;2.70;;
68910;SDS011;55953;51.650;-0.522;2023-07-02T14:14:35;7.30;;;3.00;;
68910;SDS011;55953;51.650;-0.522;2023-07-02T14:17:04;7.10;;;2.90;;
68910;SDS011;55953;51.650;-0.522;2023-07-02T14:19:32;11.50;;;3.00;;
68910;SDS011;55953;51.650;-0.522;2023-07-02T14:22:01;12.90;;;3.10;;
68910;SDS011;55953;51.650;-0.522;2023-07-02T14:24:28;9.30;;;2.70;;
68910;SDS011;55953;51.650;-0.522;2023-07-02T14:26:58;7.50;;;2.60;;
68910;SDS011;55953;51.650;-0.522;2023-07-02T14:29:25;8.90;;;2.80;;
68910;SDS011;55953;51.650;-0.522;2023-07-02T14:31:54;9.00;;;2.30;;
68910;SDS011;55953;51.650;-0.522;2023-07-02T14:34:23;12.00;;;2.80;;
68910;SDS011;55953;51.650;-0.522;2023-07-02T14:36:50;7.50;;;2.60;;
68910;SDS011;55953;51.650;-0.522;2023-07-02T14:39:18;7.80;;;2.60;;
68910;SDS011;55953;51.650;-0.522;2023-07-02T14:41:46;7.40;;;2.30;;
68910;SDS011;55953;51.650;-0.522;2023-07-02T14:44:14;10.50;;;2.80;;
68910;SDS011;55953;51.650;-0.522;2023-07-02T14:46:42;10.80;;;2.60;;